Date,TemperatureHighF,TemperatureAvgF,TemperatureLowF,DewpointHighF,DewpointAvgF,DewpointLowF,HumidityHigh,HumidityAvg,HumidityLow,PressureMaxIn,PressureMinIn,WindSpeedMaxMPH,WindSpeedAvgMPH,GustSpeedMaxMPH,PrecipitationSumIn
2013-1-1,59,49,39,34,24,12,77,46,17,30.13,29.97,10,4,20,0.00
2013-1-2,67,56,51,37,16,11,59,22,13,30.02,29.92,10,6,21,0.00
2013-1-3,67,59,49,20,14,9,32,18,11,30.05,29.93,14,7,27,0.00
2013-1-4,67,55,42,37,20,9,64,30,11,30.14,30.03,5,2,13,0.00
2013-1-5,62,49,39,42,31,22,71,51,33,30.17,30.06,2,0,7,0.00
2013-1-6,57,49,43,47,43,38,91,80,57,30.08,29.91,3,1,13,0.00
2013-1-7,63,49,37,39,36,30,86,65,32,30.01,29.89,3,0,8,0.00
2013-1-8,72,55,43,49,38,26,82,56,31,29.98,29.91,3,0,7,0.00
2013-1-9,62,52,43,53,45,36,84,78,56,30.00,29.89,2,0,7,0.00
2013-1-10,57,51,41,47,35,23,82,58,27,30.00,29.82,11,3,24,0.00
2013-1-11,54,44,33,28,22,16,73,46,23,30.07,29.94,10,2,19,0.00
2013-1-12,56,43,35,28,24,17,62,48,21,30.05,29.96,5,2,11,0.00
2013-1-13,56,45,39,30,20,9,59,39,20,30.06,29.94,7,2,18,0.00
2013-1-14,53,44,40,9,3,1,23,18,12,30.22,30.03,12,8,25,0.00
2013-1-15,60,50,38,37,18,1,70,31,15,30.31,30.22,7,2,18,0.00
2013-1-16,71,64,50,23,21,15,32,20,14,30.22,30.02,11,7,24,0.00
2013-1-17,75,68,63,16,13,10,15,12,9,30.06,29.93,14,9,30,0.00
2013-1-18,75,66,61,15,12,10,15,12,10,30.03,29.93,10,6,20,0.00
2013-1-19,77,68,61,16,12,9,15,11,8,30.06,29.95,10,6,22,0.00
2013-1-20,77,66,57,14,11,9,17,12,8,30.01,29.89,11,4,21,0.00
2013-1-21,79,69,56,13,9,6,18,10,6,29.98,29.87,10,5,22,0.00
2013-1-22,80,62,56,40,19,9,48,21,8,29.96,29.87,6,2,13,0.00
2013-1-23,71,62,56,46,28,17,70,31,18,29.98,29.87,8,1,18,0.00
2013-1-24,63,58,52,56,53,47,92,84,69,30.05,29.96,8,3,18,0.01
2013-1-25,62,60,57,54,52,46,88,75,55,30.01,29.87,6,3,13,0.00
2013-1-26,66,58,54,57,54,49,93,86,69,29.87,29.77,2,0,7,0.00
2013-1-27,61,54,45,50,43,32,86,68,44,29.91,29.81,5,1,13,0.00
2013-1-28,60,48,38,37,32,28,76,55,33,30.06,29.92,3,0,10,0.00
2013-1-29,59,48,39,42,35,31,79,61,41,30.10,30.03,2,0,10,0.00
2013-1-30,65,50,40,47,40,35,83,71,43,30.21,30.09,3,0,9,0.01
2013-1-31,72,59,43,48,43,35,76,58,40,30.09,29.99,1,0,6,0.00